createdAt,value
2023-01-22T00:00:22.243Z,-0.36
2023-01-22T00:02:49.996Z,-0.36
2023-01-22T00:05:17.774Z,-0.35
2023-01-22T00:07:45.478Z,-0.36
2023-01-22T00:10:13.253Z,-0.36
2023-01-22T00:12:41.141Z,-0.35
2023-01-22T00:15:10.914Z,-0.34
2023-01-22T00:17:38.711Z,-0.34
2023-01-22T00:20:07.637Z,-0.34
2023-01-22T00:22:35.207Z,-0.33
2023-01-22T00:25:02.753Z,-0.32
2023-01-22T00:27:30.325Z,-0.32
2023-01-22T00:30:01.069Z,-0.31
2023-01-22T00:32:30.002Z,-0.32
2023-01-22T00:34:57.498Z,-0.32
2023-01-22T00:37:26.189Z,-0.30
2023-01-22T00:39:53.847Z,-0.30
2023-01-22T00:42:21.906Z,-0.29
2023-01-22T00:44:49.427Z,-0.30
2023-01-22T00:47:17.322Z,-0.29
2023-01-22T00:49:46.203Z,-0.28
2023-01-22T00:52:13.792Z,-0.27
2023-01-22T00:54:41.952Z,-0.27
2023-01-22T00:57:09.569Z,-0.26
2023-01-22T00:59:37.127Z,-0.25
2023-01-22T01:02:06.562Z,-0.24
2023-01-22T01:04:34.230Z,-0.23
2023-01-22T01:07:03.151Z,-0.23
2023-01-22T01:09:30.814Z,-0.22
2023-01-22T01:11:59.131Z,-0.21
2023-01-22T01:14:26.871Z,-0.21
2023-01-22T01:16:54.731Z,-0.20
2023-01-22T01:19:23.235Z,-0.20
2023-01-22T01:21:51.724Z,-0.20
2023-01-22T01:24:20.652Z,-0.20
2023-01-22T01:26:48.621Z,-0.19
2023-01-22T01:29:16.200Z,-0.19
2023-01-22T01:31:43.837Z,-0.17
2023-01-22T01:34:11.476Z,-0.19
2023-01-22T01:36:54.284Z,-0.18
2023-01-22T01:39:23.453Z,-0.17
2023-01-22T01:41:51.306Z,-0.18
2023-01-22T01:44:21.165Z,-0.19
2023-01-22T01:46:51.090Z,-0.18
2023-01-22T01:49:28.773Z,-0.17
2023-01-22T01:51:58.942Z,-0.18
2023-01-22T01:54:29.531Z,-0.17
2023-01-22T01:57:01.443Z,-0.17
2023-01-22T01:59:33.408Z,-0.17
2023-01-22T02:02:03.330Z,-0.17
2023-01-22T02:04:31.207Z,-0.17
2023-01-22T02:06:58.892Z,-0.18
2023-01-22T02:09:28.537Z,-0.18
2023-01-22T02:11:56.208Z,-0.17
2023-01-22T02:14:27.985Z,-0.18
2023-01-22T02:17:02.551Z,-0.17
2023-01-22T02:19:30.075Z,-0.19
2023-01-22T02:21:59.041Z,-0.18
2023-01-22T02:24:31.712Z,-0.18
2023-01-22T02:26:59.293Z,-0.18
2023-01-22T02:29:28.969Z,-0.18
2023-01-22T02:31:56.956Z,-0.17
2023-01-22T02:34:25.031Z,-0.18
2023-01-22T02:36:53.676Z,-0.19
2023-01-22T02:39:22.842Z,-0.18
2023-01-22T02:41:52.030Z,-0.20
2023-01-22T02:44:19.790Z,-0.19
2023-01-22T02:46:47.339Z,-0.20
2023-01-22T02:49:15.047Z,-0.20
2023-01-22T02:51:42.789Z,-0.20
2023-01-22T02:54:10.681Z,-0.20
2023-01-22T02:56:40.474Z,-0.20
2023-01-22T02:59:09.809Z,-0.20
2023-01-22T03:01:37.499Z,-0.21
2023-01-22T03:04:10.783Z,-0.21
2023-01-22T03:06:40.983Z,-0.21
2023-01-22T03:09:10.880Z,-0.22
2023-01-22T03:11:42.108Z,-0.21
2023-01-22T03:14:32.028Z,-0.21
2023-01-22T03:17:17.857Z,-0.21
2023-01-22T03:20:03.198Z,-0.22
2023-01-22T03:22:31.196Z,-0.22
2023-01-22T03:25:00.482Z,-0.23
2023-01-22T03:27:33.042Z,-0.22
2023-01-22T03:30:00.745Z,-0.23
2023-01-22T03:32:33.438Z,-0.24
2023-01-22T03:35:01.786Z,-0.23
2023-01-22T03:37:44.323Z,-0.22
2023-01-22T03:40:12.680Z,-0.22
2023-01-22T03:42:41.943Z,-0.22
2023-01-22T03:45:10.571Z,-0.23
2023-01-22T03:47:38.873Z,-0.23
2023-01-22T03:50:20.393Z,-0.21
2023-01-22T03:52:48.053Z,-0.22
2023-01-22T03:55:16.891Z,-0.22
2023-01-22T03:57:46.099Z,-0.22
2023-01-22T04:00:15.463Z,-0.21
2023-01-22T04:02:44.040Z,-0.22
2023-01-22T04:05:20.341Z,-0.21
2023-01-22T04:07:50.523Z,-0.20
2023-01-22T04:10:20.837Z,-0.20
2023-01-22T04:12:50.431Z,-0.20
2023-01-22T04:15:21.347Z,-0.21
2023-01-22T04:17:50.613Z,-0.21
2023-01-22T04:20:35.894Z,-0.20
2023-01-22T04:23:19.634Z,-0.21
2023-01-22T04:25:48.853Z,-0.22
2023-01-22T04:28:18.367Z,-0.21
2023-01-22T04:30:51.757Z,-0.21
2023-01-22T04:33:37.027Z,-0.20
2023-01-22T04:36:11.645Z,-0.21
2023-01-22T04:38:39.193Z,-0.22
2023-01-22T04:41:07.179Z,-0.23
2023-01-22T04:43:36.109Z,-0.23
2023-01-22T04:46:04.221Z,-0.23
2023-01-22T04:48:33.452Z,-0.23
2023-01-22T04:51:01.237Z,-0.24
2023-01-22T04:53:31.223Z,-0.24
2023-01-22T04:55:58.913Z,-0.23
2023-01-22T04:58:27.348Z,-0.26
2023-01-22T05:00:58.715Z,-0.25
2023-01-22T05:03:26.393Z,-0.24
2023-01-22T05:05:54.279Z,-0.24
2023-01-22T05:08:21.926Z,-0.25
2023-01-22T05:10:49.555Z,-0.26
2023-01-22T05:13:21.618Z,-0.26
2023-01-22T05:15:49.270Z,-0.27
2023-01-22T05:18:19.326Z,-0.27
2023-01-22T05:20:52.165Z,-0.29
2023-01-22T05:23:21.807Z,-0.29
2023-01-22T05:25:50.077Z,-0.28
2023-01-22T05:28:22.418Z,-0.28
2023-01-22T05:31:19.335Z,-0.28
2023-01-22T05:34:05.831Z,-0.30
2023-01-22T05:36:33.465Z,-0.30
2023-01-22T05:39:06.961Z,-0.30
2023-01-22T05:41:35.656Z,-0.30
2023-01-22T05:44:03.398Z,-0.31
2023-01-22T05:46:31.015Z,-0.30
2023-01-22T05:49:12.120Z,-0.30
2023-01-22T05:51:39.755Z,-0.31
2023-01-22T05:54:07.377Z,-0.31
2023-01-22T05:56:37.857Z,-0.32
2023-01-22T05:59:05.480Z,-0.31
2023-01-22T06:01:33.035Z,-0.31
2023-01-22T06:04:00.617Z,-0.31
2023-01-22T06:06:29.557Z,-0.31
2023-01-22T06:08:57.481Z,-0.30
2023-01-22T06:11:29.922Z,-0.31
2023-01-22T06:13:57.606Z,-0.29
2023-01-22T06:16:25.162Z,-0.30
2023-01-22T06:19:06.459Z,-0.32
2023-01-22T06:21:43.693Z,-0.30
2023-01-22T06:24:12.531Z,-0.30
2023-01-22T06:26:40.149Z,-0.30
2023-01-22T06:29:10.195Z,-0.30
2023-01-22T06:31:39.840Z,-0.30
2023-01-22T06:34:09.814Z,-0.30
2023-01-22T06:36:37.520Z,-0.29
2023-01-22T06:39:07.494Z,-0.30
2023-01-22T06:41:45.474Z,-0.29
2023-01-22T06:44:16.230Z,-0.30
2023-01-22T06:46:43.791Z,-0.27
2023-01-22T06:49:18.850Z,-0.28
2023-01-22T06:51:46.372Z,-0.29
2023-01-22T06:54:16.244Z,-0.28
2023-01-22T06:56:44.181Z,-0.27
2023-01-22T06:59:13.783Z,-0.27
2023-01-22T07:01:42.079Z,-0.27
2023-01-22T07:04:10.802Z,-0.27
2023-01-22T07:06:38.289Z,-0.27
2023-01-22T07:09:05.808Z,-0.26
2023-01-22T07:11:34.661Z,-0.26
2023-01-22T07:14:02.166Z,-0.26
2023-01-22T07:16:29.698Z,-0.24
2023-01-22T07:18:57.244Z,-0.24
2023-01-22T07:21:24.824Z,-0.24
2023-01-22T07:23:52.472Z,-0.22
2023-01-22T07:26:20.019Z,-0.23
2023-01-22T07:28:48.874Z,-0.22
2023-01-22T07:31:16.398Z,-0.24
2023-01-22T07:33:43.934Z,-0.22
2023-01-22T07:36:11.499Z,-0.21
2023-01-22T07:38:39.026Z,-0.21
2023-01-22T07:41:20.286Z,-0.21
2023-01-22T07:43:53.580Z,-0.20
2023-01-22T07:46:21.873Z,-0.19
2023-01-22T07:48:49.420Z,-0.18
2023-01-22T07:51:17.529Z,-0.19
2023-01-22T07:53:45.143Z,-0.16
2023-01-22T07:56:12.980Z,-0.16
2023-01-22T07:58:41.200Z,-0.15
2023-01-22T08:01:11.114Z,-0.15
2023-01-22T08:03:39.120Z,-0.16
2023-01-22T08:06:09.490Z,-0.14
2023-01-22T08:08:37.115Z,-0.14
2023-01-22T08:11:05.186Z,-0.14
2023-01-22T08:13:32.749Z,-0.12
2023-01-22T08:16:00.345Z,-0.12
2023-01-22T08:18:29.752Z,-0.12
2023-01-22T08:21:00.600Z,-0.12
2023-01-22T08:23:28.440Z,-0.11
2023-01-22T08:25:59.508Z,-0.09
2023-01-22T08:28:27.408Z,-0.10
2023-01-22T08:30:58.726Z,-0.09
2023-01-22T08:33:27.085Z,-0.06
2023-01-22T08:35:55.990Z,-0.06
2023-01-22T08:38:23.687Z,-0.04
2023-01-22T08:40:51.751Z,-0.04
2023-01-22T08:43:19.842Z,0.00
2023-01-22T08:45:49.772Z,0.01
2023-01-22T08:48:17.468Z,0.03
2023-01-22T08:50:45.026Z,0.05
2023-01-22T08:53:13.945Z,0.07
2023-01-22T08:55:41.675Z,0.08
2023-01-22T08:58:10.463Z,0.11
2023-01-22T09:00:38.112Z,0.12
2023-01-22T09:03:05.618Z,0.15
2023-01-22T09:05:33.114Z,0.15
2023-01-22T09:08:00.612Z,0.18
2023-01-22T09:10:29.506Z,0.20
2023-01-22T09:12:59.690Z,0.23
2023-01-22T09:15:27.379Z,0.23
2023-01-22T09:17:54.890Z,0.25
2023-01-22T09:20:22.671Z,0.28
2023-01-22T09:22:50.811Z,0.28
2023-01-22T09:25:18.471Z,0.29
2023-01-22T09:27:47.332Z,0.29
2023-01-22T09:30:15.464Z,0.31
2023-01-22T09:32:43.016Z,0.31
2023-01-22T09:35:11.196Z,0.32
2023-01-22T09:37:38.705Z,0.32
2023-01-22T09:40:07.363Z,0.33
2023-01-22T09:42:38.150Z,0.34
2023-01-22T09:45:12.511Z,0.34
2023-01-22T09:47:44.330Z,0.36
2023-01-22T09:50:18.963Z,0.38
2023-01-22T09:52:47.283Z,0.41
2023-01-22T09:55:17.300Z,0.42
2023-01-22T09:57:47.621Z,0.44
2023-01-22T10:00:20.517Z,0.46
2023-01-22T10:02:51.949Z,0.46
2023-01-22T10:05:28.794Z,0.47
2023-01-22T10:08:01.548Z,0.48
2023-01-22T10:10:30.261Z,0.49
2023-01-22T10:13:14.379Z,0.51
2023-01-22T10:15:43.486Z,0.51
2023-01-22T10:18:25.555Z,0.54
2023-01-22T10:20:54.479Z,0.54
2023-01-22T10:23:24.096Z,0.55
2023-01-22T10:25:56.381Z,0.57
2023-01-22T10:28:26.841Z,0.58
2023-01-22T10:30:58.883Z,0.60
2023-01-22T10:33:28.551Z,0.60
2023-01-22T10:35:58.006Z,0.61
2023-01-22T10:38:28.463Z,0.61
2023-01-22T10:40:58.437Z,0.62
2023-01-22T10:43:33.785Z,0.63
2023-01-22T10:46:07.035Z,0.64
2023-01-22T10:48:35.230Z,0.65
2023-01-22T10:51:13.310Z,0.66
2023-01-22T10:53:47.007Z,0.68
2023-01-22T10:56:25.549Z,0.71
2023-01-22T10:58:53.306Z,0.72
2023-01-22T11:01:29.674Z,0.75
2023-01-22T11:03:57.249Z,0.77
2023-01-22T11:06:28.399Z,0.79
2023-01-22T11:09:01.124Z,0.80
2023-01-22T11:11:33.761Z,0.81
2023-01-22T11:14:05.349Z,0.82
2023-01-22T11:16:38.047Z,0.84
2023-01-22T11:19:08.234Z,0.85
2023-01-22T11:21:39.128Z,0.86
2023-01-22T11:24:13.185Z,0.87
2023-01-22T11:27:19.549Z,0.89
2023-01-22T11:30:18.613Z,0.90
2023-01-22T11:32:57.427Z,0.91
2023-01-22T11:35:29.235Z,0.93
2023-01-22T11:38:17.025Z,0.95
2023-01-22T11:41:10.611Z,0.95
2023-01-22T11:44:01.368Z,0.97
2023-01-22T11:46:43.415Z,0.98
2023-01-22T11:49:26.202Z,0.99
2023-01-22T11:52:07.337Z,1.00
2023-01-22T11:54:48.963Z,1.02
2023-01-22T11:57:21.824Z,1.02
2023-01-22T12:00:04.561Z,1.04
2023-01-22T12:02:47.671Z,1.01
2023-01-22T12:05:31.914Z,1.05
2023-01-22T12:08:16.577Z,1.06
2023-01-22T12:11:08.838Z,1.08
2023-01-22T12:13:58.634Z,1.09
2023-01-22T12:16:30.750Z,1.08
2023-01-22T12:19:23.621Z,1.09
2023-01-22T12:22:01.575Z,1.08
2023-01-22T12:24:34.177Z,1.10
2023-01-22T12:27:06.295Z,1.10
2023-01-22T12:29:37.817Z,1.09
2023-01-22T12:32:10.897Z,1.11
2023-01-22T12:34:48.038Z,1.12
2023-01-22T12:37:26.238Z,1.14
2023-01-22T12:40:16.876Z,1.14
2023-01-22T12:42:50.537Z,1.14
2023-01-22T12:45:23.714Z,1.14
2023-01-22T12:47:57.995Z,1.15
2023-01-22T12:50:27.503Z,1.15
2023-01-22T12:53:01.121Z,1.14
2023-01-22T12:55:34.872Z,1.14
2023-01-22T12:58:04.233Z,1.14
2023-01-22T13:00:35.517Z,1.13
2023-01-22T13:03:31.117Z,1.14
2023-01-22T13:06:00.651Z,1.15
2023-01-22T13:08:41.303Z,1.15
2023-01-22T13:11:11.598Z,1.14
2023-01-22T13:13:46.707Z,1.15
2023-01-22T13:16:23.491Z,1.14
2023-01-22T13:18:52.680Z,1.14
2023-01-22T13:21:26.375Z,1.14
2023-01-22T13:24:00.041Z,1.14
2023-01-22T13:26:30.446Z,1.13
2023-01-22T13:29:00.014Z,1.14
2023-01-22T13:31:28.223Z,1.12
2023-01-22T13:33:59.013Z,1.12
2023-01-22T13:36:27.349Z,1.11
2023-01-22T13:38:58.664Z,1.11
2023-01-22T13:41:30.070Z,1.10
2023-01-22T13:43:58.149Z,1.09
2023-01-22T13:46:28.756Z,1.09
2023-01-22T13:49:07.991Z,1.07
2023-01-22T13:51:36.658Z,1.07
2023-01-22T13:54:08.189Z,1.06
2023-01-22T13:56:35.846Z,1.06
2023-01-22T13:59:08.891Z,1.05
2023-01-22T14:01:38.177Z,1.04
2023-01-22T14:04:07.298Z,1.04
2023-01-22T14:06:45.032Z,1.04
2023-01-22T14:09:14.103Z,1.02
2023-01-22T14:11:41.942Z,1.01
2023-01-22T14:14:17.537Z,1.02
2023-01-22T14:16:45.299Z,0.99
2023-01-22T14:19:12.911Z,1.00
2023-01-22T14:21:40.690Z,0.99
2023-01-22T14:24:09.344Z,0.99
2023-01-22T14:26:38.461Z,0.99
2023-01-22T14:29:06.185Z,0.99
2023-01-22T14:31:33.766Z,0.97
2023-01-22T14:34:01.331Z,0.96
2023-01-22T14:36:28.910Z,0.96
2023-01-22T14:38:57.783Z,0.95
2023-01-22T14:41:25.363Z,0.93
2023-01-22T14:43:54.230Z,0.92
2023-01-22T14:46:21.771Z,0.92
2023-01-22T14:48:49.352Z,0.88
2023-01-22T14:51:17.000Z,0.87
2023-01-22T14:53:45.180Z,0.87
2023-01-22T14:56:13.040Z,0.86
2023-01-22T14:58:40.580Z,0.85
2023-01-22T15:01:20.666Z,0.84
2023-01-22T15:03:48.288Z,0.82
2023-01-22T15:06:16.007Z,0.80
2023-01-22T15:08:43.540Z,0.79
2023-01-22T15:11:11.073Z,0.79
2023-01-22T15:13:38.814Z,0.76
2023-01-22T15:16:08.117Z,0.77
2023-01-22T15:18:38.223Z,0.75
2023-01-22T15:21:06.582Z,0.74
2023-01-22T15:23:35.509Z,0.73
2023-01-22T15:26:05.677Z,0.72
2023-01-22T15:28:33.257Z,0.72
2023-01-22T15:31:07.474Z,0.70
2023-01-22T15:33:35.417Z,0.68
2023-01-22T15:36:05.220Z,0.69
2023-01-22T15:38:32.757Z,0.65
2023-01-22T15:41:05.073Z,0.64
2023-01-22T15:43:32.592Z,0.64
2023-01-22T15:46:00.389Z,0.63
2023-01-22T15:48:28.043Z,0.63
2023-01-22T15:50:55.586Z,0.61
2023-01-22T15:53:25.532Z,0.60
2023-01-22T15:55:53.439Z,0.59
2023-01-22T15:58:20.967Z,0.57
2023-01-22T16:00:48.502Z,0.57
2023-01-22T16:03:16.230Z,0.55
2023-01-22T16:05:43.777Z,0.55
2023-01-22T16:08:11.401Z,0.55
2023-01-22T16:10:40.447Z,0.54
2023-01-22T16:13:08.280Z,0.54
2023-01-22T16:15:35.862Z,0.52
2023-01-22T16:18:03.387Z,0.53
2023-01-22T16:20:30.949Z,0.51
2023-01-22T16:22:58.592Z,0.51
2023-01-22T16:25:26.207Z,0.50
2023-01-22T16:27:55.066Z,0.49
2023-01-22T16:30:22.920Z,0.49
2023-01-22T16:32:53.371Z,0.49
2023-01-22T16:35:20.903Z,0.49
2023-01-22T16:37:48.495Z,0.49
2023-01-22T16:40:17.956Z,0.48
2023-01-22T16:43:01.382Z,0.47
2023-01-22T16:45:28.960Z,0.47
2023-01-22T16:47:56.674Z,0.46
2023-01-22T16:50:24.222Z,0.47
2023-01-22T16:52:51.773Z,0.47
2023-01-22T16:55:19.550Z,0.46
2023-01-22T16:57:47.120Z,0.46
2023-01-22T17:00:17.094Z,0.45
2023-01-22T17:02:44.907Z,0.46
2023-01-22T17:05:13.152Z,0.44
2023-01-22T17:07:40.738Z,0.44
2023-01-22T17:10:09.403Z,0.44
2023-01-22T17:12:37.541Z,0.42
2023-01-22T17:15:08.727Z,0.42
2023-01-22T17:17:37.676Z,0.43
2023-01-22T17:20:06.231Z,0.43
2023-01-22T17:22:35.830Z,0.42
2023-01-22T17:25:03.721Z,0.41
2023-01-22T17:27:31.578Z,0.42
2023-01-22T17:29:59.141Z,0.42
2023-01-22T17:32:26.901Z,0.41
2023-01-22T17:34:56.036Z,0.40
2023-01-22T17:37:23.576Z,0.38
2023-01-22T17:39:51.428Z,0.40
2023-01-22T17:42:20.931Z,0.39
2023-01-22T17:44:48.848Z,0.38
2023-01-22T17:47:16.394Z,0.39
2023-01-22T17:49:43.941Z,0.39
2023-01-22T17:52:12.847Z,0.38
2023-01-22T17:54:41.065Z,0.39
2023-01-22T17:57:09.777Z,0.40
2023-01-22T17:59:37.761Z,0.39
2023-01-22T18:02:05.305Z,0.39
2023-01-22T18:04:34.461Z,0.39
2023-01-22T18:07:01.981Z,0.39
2023-01-22T18:09:31.159Z,0.38
2023-01-22T18:12:00.368Z,0.39
2023-01-22T18:14:33.782Z,0.37
2023-01-22T18:17:02.374Z,0.38
2023-01-22T18:19:29.921Z,0.38
2023-01-22T18:21:57.566Z,0.37
2023-01-22T18:24:26.414Z,0.37
2023-01-22T18:26:57.792Z,0.37
2023-01-22T18:29:26.590Z,0.37
2023-01-22T18:31:54.347Z,0.37
2023-01-22T18:34:21.925Z,0.36
2023-01-22T18:36:49.511Z,0.35
2023-01-22T18:39:19.178Z,0.35
2023-01-22T18:41:47.552Z,0.34
2023-01-22T18:44:19.315Z,0.35
2023-01-22T18:46:51.656Z,0.34
2023-01-22T18:49:19.949Z,0.37
2023-01-22T18:51:48.144Z,0.37
2023-01-22T18:54:17.230Z,0.36
2023-01-22T18:56:45.378Z,0.35
2023-01-22T18:59:13.306Z,0.35
2023-01-22T19:01:44.358Z,0.35
2023-01-22T19:04:17.837Z,0.35
2023-01-22T19:06:48.072Z,0.35
2023-01-22T19:09:16.694Z,0.34
2023-01-22T19:11:47.035Z,0.34
2023-01-22T19:14:17.340Z,0.35
2023-01-22T19:16:50.831Z,0.34
2023-01-22T19:19:19.356Z,0.34
2023-01-22T19:21:49.144Z,0.34
2023-01-22T19:24:22.239Z,0.32
2023-01-22T19:26:51.287Z,0.34
2023-01-22T19:29:19.756Z,0.34
2023-01-22T19:31:51.954Z,0.34
2023-01-22T19:34:23.596Z,0.34
2023-01-22T19:36:52.834Z,0.34
2023-01-22T19:39:21.232Z,0.34
2023-01-22T19:41:49.080Z,0.35
2023-01-22T19:44:16.613Z,0.35
2023-01-22T19:46:44.314Z,0.33
2023-01-22T19:49:14.157Z,0.33
2023-01-22T19:51:41.768Z,0.34
2023-01-22T19:54:10.202Z,0.34
2023-01-22T19:56:39.336Z,0.34
2023-01-22T19:59:08.745Z,0.33
2023-01-22T20:01:37.378Z,0.34
2023-01-22T20:04:08.805Z,0.34
2023-01-22T20:06:37.662Z,0.34
2023-01-22T20:09:06.078Z,0.33
2023-01-22T20:11:33.809Z,0.34
2023-01-22T20:14:01.356Z,0.34
2023-01-22T20:16:30.334Z,0.33
2023-01-22T20:18:58.728Z,0.34
2023-01-22T20:21:27.647Z,0.33
2023-01-22T20:23:56.636Z,0.33
2023-01-22T20:26:24.615Z,0.33
2023-01-22T20:28:52.436Z,0.34
2023-01-22T20:31:23.422Z,0.32
2023-01-22T20:33:52.372Z,0.33
2023-01-22T20:36:21.475Z,0.33
2023-01-22T20:38:52.692Z,0.33
2023-01-22T20:41:23.341Z,0.33
2023-01-22T20:43:51.552Z,0.33
2023-01-22T20:46:21.478Z,0.33
2023-01-22T20:48:49.451Z,0.32
2023-01-22T20:51:19.882Z,0.33
2023-01-22T20:53:48.258Z,0.33
2023-01-22T20:56:23.609Z,0.32
2023-01-22T20:58:57.084Z,0.32
2023-01-22T21:01:25.020Z,0.32
2023-01-22T21:03:52.915Z,0.32
2023-01-22T21:06:21.121Z,0.33
2023-01-22T21:08:51.263Z,0.32
2023-01-22T21:11:20.781Z,0.31
2023-01-22T21:13:51.969Z,0.30
2023-01-22T21:16:26.130Z,0.31
2023-01-22T21:18:55.497Z,0.31
2023-01-22T21:21:23.135Z,0.31
2023-01-22T21:23:52.461Z,0.31
2023-01-22T21:26:22.838Z,0.31
2023-01-22T21:28:54.587Z,0.30
2023-01-22T21:31:23.176Z,0.31
2023-01-22T21:33:52.535Z,0.30
2023-01-22T21:36:20.460Z,0.30
2023-01-22T21:38:48.391Z,0.30
2023-01-22T21:41:17.485Z,0.30
2023-01-22T21:44:05.079Z,0.29
2023-01-22T21:46:36.505Z,0.30
2023-01-22T21:49:16.208Z,0.28
2023-01-22T21:51:45.913Z,0.30
2023-01-22T21:54:17.276Z,0.29
2023-01-22T21:56:45.008Z,0.29
2023-01-22T21:59:12.649Z,0.30
2023-01-22T22:01:41.744Z,0.30
2023-01-22T22:04:10.886Z,0.29
2023-01-22T22:06:39.622Z,0.30
2023-01-22T22:09:11.421Z,0.29
2023-01-22T22:11:38.929Z,0.29
2023-01-22T22:14:08.472Z,0.28
2023-01-22T22:16:37.553Z,0.29
2023-01-22T22:19:07.473Z,0.30
2023-01-22T22:21:35.190Z,0.28
2023-01-22T22:24:05.533Z,0.29
2023-01-22T22:26:33.342Z,0.29
2023-01-22T22:29:00.908Z,0.29
2023-01-22T22:31:28.495Z,0.30
2023-01-22T22:33:57.388Z,0.29
2023-01-22T22:36:27.849Z,0.29
2023-01-22T22:38:55.591Z,0.30
2023-01-22T22:41:24.904Z,0.29
2023-01-22T22:43:53.939Z,0.31
2023-01-22T22:46:23.502Z,0.29
2023-01-22T22:48:52.127Z,0.30
2023-01-22T22:51:22.813Z,0.29
2023-01-22T22:53:55.049Z,0.30
2023-01-22T22:56:23.416Z,0.30
2023-01-22T22:58:51.826Z,0.30
2023-01-22T23:01:21.586Z,0.29
2023-01-22T23:03:49.602Z,0.29
2023-01-22T23:06:20.888Z,0.30
2023-01-22T23:08:52.180Z,0.28
2023-01-22T23:11:22.952Z,0.28
2023-01-22T23:13:50.945Z,0.28
2023-01-22T23:16:20.355Z,0.28
2023-01-22T23:18:49.431Z,0.28
2023-01-22T23:21:20.730Z,0.28
2023-01-22T23:23:48.689Z,0.28
2023-01-22T23:26:18.378Z,0.28
2023-01-22T23:28:48.445Z,0.29
2023-01-22T23:31:17.967Z,0.28
2023-01-22T23:33:45.537Z,0.27
2023-01-22T23:36:17.041Z,0.29
2023-01-22T23:38:44.726Z,0.29
2023-01-22T23:41:14.822Z,0.29
2023-01-22T23:43:43.496Z,0.29
2023-01-22T23:46:15.268Z,0.29
2023-01-22T23:48:42.985Z,0.29
2023-01-22T23:51:12.541Z,0.29
2023-01-22T23:53:42.079Z,0.28
2023-01-22T23:56:11.385Z,0.29
2023-01-22T23:58:39.170Z,0.29
